sensor_id;sensor_type;location;lat;lon;timestamp;P1;durP1;ratioP1;P2;durP2;ratioP2
60292;SDS011;52402;52.670;6.750;2023-12-20T00:01:41;50.92;;;47.63;;
60292;SDS011;52402;52.670;6.750;2023-12-20T00:04:06;51.70;;;48.40;;
60292;SDS011;52402;52.670;6.750;2023-12-20T00:06:32;51.90;;;48.60;;
60292;SDS011;52402;52.670;6.750;2023-12-20T00:08:58;53.38;;;49.97;;
60292;SDS011;52402;52.670;6.750;2023-12-20T00:11:24;49.78;;;46.60;;
60292;SDS011;52402;52.670;6.750;2023-12-20T00:13:49;50.92;;;47.63;;
60292;SDS011;52402;52.670;6.750;2023-12-20T00:16:15;52.38;;;49.05;;
60292;SDS011;52402;52.670;6.750;2023-12-20T00:18:40;47.78;;;44.67;;
60292;SDS011;52402;52.670;6.750;2023-12-20T00:21:06;52.33;;;48.95;;
60292;SDS011;52402;52.670;6.750;2023-12-20T00:23:32;50.10;;;46.90;;
60292;SDS011;52402;52.670;6.750;2023-12-20T00:25:57;52.58;;;49.28;;
60292;SDS011;52402;52.670;6.750;2023-12-20T00:28:23;54.10;;;50.70;;
60292;SDS011;52402;52.670;6.750;2023-12-20T00:30:48;53.03;;;49.70;;
60292;SDS011;52402;52.670;6.750;2023-12-20T00:33:14;53.50;;;50.10;;
60292;SDS011;52402;52.670;6.750;2023-12-20T00:35:39;54.13;;;50.72;;
60292;SDS011;52402;52.670;6.750;2023-12-20T00:38:05;51.80;;;48.50;;
60292;SDS011;52402;52.670;6.750;2023-12-20T00:40:32;53.47;;;50.13;;
60292;SDS011;52402;52.670;6.750;2023-12-20T00:42:58;54.75;;;51.35;;
60292;SDS011;52402;52.670;6.750;2023-12-20T00:45:23;53.58;;;50.20;;
60292;SDS011;52402;52.670;6.750;2023-12-20T00:47:49;54.80;;;51.40;;
60292;SDS011;52402;52.670;6.750;2023-12-20T00:50:15;51.08;;;47.78;;
60292;SDS011;52402;52.670;6.750;2023-12-20T00:52:41;51.28;;;47.97;;
60292;SDS011;52402;52.670;6.750;2023-12-20T00:55:07;53.35;;;49.95;;
60292;SDS011;52402;52.670;6.750;2023-12-20T00:57:32;51.13;;;47.92;;
60292;SDS011;52402;52.670;6.750;2023-12-20T00:59:59;51.60;;;48.40;;
60292;SDS011;52402;52.670;6.750;2023-12-20T01:02:24;50.22;;;47.03;;
60292;SDS011;52402;52.670;6.750;2023-12-20T01:04:50;54.63;;;51.33;;
60292;SDS011;52402;52.670;6.750;2023-12-20T01:07:16;51.72;;;48.53;;
60292;SDS011;52402;52.670;6.750;2023-12-20T01:09:41;50.63;;;47.47;;
60292;SDS011;52402;52.670;6.750;2023-12-20T01:12:07;51.10;;;47.95;;
60292;SDS011;52402;52.670;6.750;2023-12-20T01:14:32;53.30;;;50.10;;
60292;SDS011;52402;52.670;6.750;2023-12-20T01:16:58;51.25;;;48.15;;
60292;SDS011;52402;52.670;6.750;2023-12-20T01:19:24;50.42;;;47.33;;
60292;SDS011;52402;52.670;6.750;2023-12-20T01:21:50;54.95;;;51.65;;
60292;SDS011;52402;52.670;6.750;2023-12-20T01:24:15;57.15;;;53.75;;
60292;SDS011;52402;52.670;6.750;2023-12-20T01:26:41;57.28;;;53.88;;
60292;SDS011;52402;52.670;6.750;2023-12-20T01:29:07;57.30;;;53.90;;
60292;SDS011;52402;52.670;6.750;2023-12-20T01:31:36;55.00;;;51.70;;
60292;SDS011;52402;52.670;6.750;2023-12-20T01:34:01;54.83;;;51.53;;
60292;SDS011;52402;52.670;6.750;2023-12-20T01:36:27;59.03;;;55.53;;
60292;SDS011;52402;52.670;6.750;2023-12-20T01:38:53;56.33;;;52.97;;
60292;SDS011;52402;52.670;6.750;2023-12-20T01:41:18;56.65;;;53.25;;
60292;SDS011;52402;52.670;6.750;2023-12-20T01:43:44;55.97;;;52.58;;
60292;SDS011;52402;52.670;6.750;2023-12-20T01:46:10;59.42;;;55.88;;
60292;SDS011;52402;52.670;6.750;2023-12-20T01:48:37;58.67;;;55.17;;
60292;SDS011;52402;52.670;6.750;2023-12-20T01:51:03;58.08;;;54.58;;
60292;SDS011;52402;52.670;6.750;2023-12-20T01:53:30;54.40;;;51.08;;
60292;SDS011;52402;52.670;6.750;2023-12-20T01:55:57;57.20;;;53.70;;
60292;SDS011;52402;52.670;6.750;2023-12-20T01:58:24;54.00;;;50.70;;
60292;SDS011;52402;52.670;6.750;2023-12-20T02:00:51;59.90;;;56.40;;
60292;SDS011;52402;52.670;6.750;2023-12-20T02:03:16;55.22;;;51.90;;
60292;SDS011;52402;52.670;6.750;2023-12-20T02:05:43;53.67;;;50.42;;
60292;SDS011;52402;52.670;6.750;2023-12-20T02:08:10;54.65;;;51.35;;
60292;SDS011;52402;52.670;6.750;2023-12-20T02:10:36;56.05;;;52.75;;
60292;SDS011;52402;52.670;6.750;2023-12-20T02:13:03;54.63;;;51.33;;
60292;SDS011;52402;52.670;6.750;2023-12-20T02:15:29;53.30;;;50.10;;
60292;SDS011;52402;52.670;6.750;2023-12-20T02:17:55;53.47;;;50.28;;
60292;SDS011;52402;52.670;6.750;2023-12-20T02:20:20;55.33;;;52.03;;
60292;SDS011;52402;52.670;6.750;2023-12-20T02:22:46;57.45;;;54.05;;
60292;SDS011;52402;52.670;6.750;2023-12-20T02:25:12;52.95;;;49.85;;
60292;SDS011;52402;52.670;6.750;2023-12-20T02:27:37;56.92;;;53.53;;
60292;SDS011;52402;52.670;6.750;2023-12-20T02:30:05;55.63;;;52.33;;
60292;SDS011;52402;52.670;6.750;2023-12-20T02:32:31;51.90;;;48.80;;
60292;SDS011;52402;52.670;6.750;2023-12-20T02:34:57;52.20;;;49.10;;
60292;SDS011;52402;52.670;6.750;2023-12-20T02:37:23;52.17;;;49.05;;
60292;SDS011;52402;52.670;6.750;2023-12-20T02:39:48;52.70;;;49.58;;
60292;SDS011;52402;52.670;6.750;2023-12-20T02:42:14;49.17;;;46.17;;
60292;SDS011;52402;52.670;6.750;2023-12-20T02:44:40;52.05;;;48.85;;
60292;SDS011;52402;52.670;6.750;2023-12-20T02:47:05;49.90;;;46.90;;
60292;SDS011;52402;52.670;6.750;2023-12-20T02:49:31;54.08;;;50.78;;
60292;SDS011;52402;52.670;6.750;2023-12-20T02:51:57;51.50;;;48.40;;
60292;SDS011;52402;52.670;6.750;2023-12-20T02:54:22;51.53;;;48.40;;
60292;SDS011;52402;52.670;6.750;2023-12-20T02:56:48;53.42;;;50.22;;
60292;SDS011;52402;52.670;6.750;2023-12-20T02:59:13;52.45;;;49.25;;
60292;SDS011;52402;52.670;6.750;2023-12-20T03:01:43;52.38;;;49.22;;
60292;SDS011;52402;52.670;6.750;2023-12-20T03:04:10;54.38;;;51.08;;
60292;SDS011;52402;52.670;6.750;2023-12-20T03:06:35;52.47;;;49.28;;
60292;SDS011;52402;52.670;6.750;2023-12-20T03:09:01;53.60;;;50.40;;
60292;SDS011;52402;52.670;6.750;2023-12-20T03:11:27;51.60;;;48.50;;
60292;SDS011;52402;52.670;6.750;2023-12-20T03:13:53;52.38;;;49.25;;
60292;SDS011;52402;52.670;6.750;2023-12-20T03:16:19;54.53;;;51.28;;
60292;SDS011;52402;52.670;6.750;2023-12-20T03:18:45;56.80;;;53.40;;
60292;SDS011;52402;52.670;6.750;2023-12-20T03:21:10;54.88;;;51.58;;
60292;SDS011;52402;52.670;6.750;2023-12-20T03:23:36;52.92;;;49.72;;
60292;SDS011;52402;52.670;6.750;2023-12-20T03:26:01;51.78;;;48.65;;
60292;SDS011;52402;52.670;6.750;2023-12-20T03:28:27;53.85;;;50.60;;
60292;SDS011;52402;52.670;6.750;2023-12-20T03:30:53;52.20;;;49.08;;
60292;SDS011;52402;52.670;6.750;2023-12-20T03:33:18;53.53;;;50.33;;
60292;SDS011;52402;52.670;6.750;2023-12-20T03:35:44;51.00;;;47.90;;
60292;SDS011;52402;52.670;6.750;2023-12-20T03:38:10;54.22;;;51.03;;
60292;SDS011;52402;52.670;6.750;2023-12-20T03:40:35;53.50;;;50.30;;
60292;SDS011;52402;52.670;6.750;2023-12-20T03:43:01;50.42;;;47.42;;
60292;SDS011;52402;52.670;6.750;2023-12-20T03:45:27;52.00;;;48.90;;
60292;SDS011;52402;52.670;6.750;2023-12-20T03:47:52;54.80;;;51.55;;
60292;SDS011;52402;52.670;6.750;2023-12-20T03:50:25;52.78;;;49.60;;
60292;SDS011;52402;52.670;6.750;2023-12-20T03:52:51;52.83;;;49.67;;
60292;SDS011;52402;52.670;6.750;2023-12-20T03:55:17;54.38;;;51.17;;
60292;SDS011;52402;52.670;6.750;2023-12-20T03:57:42;54.22;;;50.92;;
60292;SDS011;52402;52.670;6.750;2023-12-20T04:00:08;53.03;;;49.83;;
60292;SDS011;52402;52.670;6.750;2023-12-20T04:02:36;51.65;;;48.55;;
60292;SDS011;52402;52.670;6.750;2023-12-20T04:05:05;54.60;;;51.40;;
60292;SDS011;52402;52.670;6.750;2023-12-20T04:07:31;54.58;;;51.35;;
60292;SDS011;52402;52.670;6.750;2023-12-20T04:09:57;53.13;;;49.92;;
60292;SDS011;52402;52.670;6.750;2023-12-20T04:12:22;52.90;;;49.75;;
60292;SDS011;52402;52.670;6.750;2023-12-20T04:14:48;51.88;;;48.78;;
60292;SDS011;52402;52.670;6.750;2023-12-20T04:17:15;55.22;;;51.92;;
60292;SDS011;52402;52.670;6.750;2023-12-20T04:19:41;54.03;;;50.72;;
60292;SDS011;52402;52.670;6.750;2023-12-20T04:22:07;52.72;;;49.58;;
60292;SDS011;52402;52.670;6.750;2023-12-20T04:24:32;53.50;;;50.30;;
60292;SDS011;52402;52.670;6.750;2023-12-20T04:26:58;53.50;;;50.30;;
60292;SDS011;52402;52.670;6.750;2023-12-20T04:29:24;54.00;;;50.78;;
60292;SDS011;52402;52.670;6.750;2023-12-20T04:31:49;52.08;;;48.95;;
60292;SDS011;52402;52.670;6.750;2023-12-20T04:34:16;54.92;;;51.63;;
60292;SDS011;52402;52.670;6.750;2023-12-20T04:36:43;56.17;;;52.85;;
60292;SDS011;52402;52.670;6.750;2023-12-20T04:39:09;51.67;;;48.58;;
60292;SDS011;52402;52.670;6.750;2023-12-20T04:41:35;52.60;;;49.50;;
60292;SDS011;52402;52.670;6.750;2023-12-20T04:44:00;51.45;;;48.35;;
60292;SDS011;52402;52.670;6.750;2023-12-20T04:46:26;50.72;;;47.72;;
60292;SDS011;52402;52.670;6.750;2023-12-20T04:48:52;50.67;;;47.67;;
60292;SDS011;52402;52.670;6.750;2023-12-20T04:51:17;50.80;;;47.70;;
60292;SDS011;52402;52.670;6.750;2023-12-20T04:53:43;51.10;;;48.00;;
60292;SDS011;52402;52.670;6.750;2023-12-20T04:56:09;51.42;;;48.33;;
60292;SDS011;52402;52.670;6.750;2023-12-20T04:58:34;53.20;;;50.00;;
60292;SDS011;52402;52.670;6.750;2023-12-20T05:01:00;52.03;;;48.92;;
60292;SDS011;52402;52.670;6.750;2023-12-20T05:03:25;53.47;;;50.28;;
60292;SDS011;52402;52.670;6.750;2023-12-20T05:05:51;54.00;;;50.80;;
60292;SDS011;52402;52.670;6.750;2023-12-20T05:08:17;54.30;;;51.10;;
60292;SDS011;52402;52.670;6.750;2023-12-20T05:10:43;50.03;;;47.03;;
60292;SDS011;52402;52.670;6.750;2023-12-20T05:13:08;52.40;;;49.20;;
60292;SDS011;52402;52.670;6.750;2023-12-20T05:15:34;49.38;;;46.45;;
60292;SDS011;52402;52.670;6.750;2023-12-20T05:17:59;54.72;;;51.53;;
60292;SDS011;52402;52.670;6.750;2023-12-20T05:20:25;51.65;;;48.65;;
60292;SDS011;52402;52.670;6.750;2023-12-20T05:22:51;54.28;;;51.08;;
60292;SDS011;52402;52.670;6.750;2023-12-20T05:25:16;53.47;;;50.28;;
60292;SDS011;52402;52.670;6.750;2023-12-20T05:27:42;54.30;;;51.10;;
60292;SDS011;52402;52.670;6.750;2023-12-20T05:30:07;53.38;;;50.17;;
60292;SDS011;52402;52.670;6.750;2023-12-20T05:32:33;53.58;;;50.38;;
60292;SDS011;52402;52.670;6.750;2023-12-20T05:34:59;52.75;;;49.65;;
60292;SDS011;52402;52.670;6.750;2023-12-20T05:37:25;51.08;;;48.08;;
60292;SDS011;52402;52.670;6.750;2023-12-20T05:39:50;49.50;;;46.55;;
60292;SDS011;52402;52.670;6.750;2023-12-20T05:42:16;49.60;;;46.70;;
60292;SDS011;52402;52.670;6.750;2023-12-20T05:44:41;49.80;;;46.90;;
60292;SDS011;52402;52.670;6.750;2023-12-20T05:47:07;47.30;;;44.50;;
60292;SDS011;52402;52.670;6.750;2023-12-20T05:49:33;48.05;;;45.25;;
60292;SDS011;52402;52.670;6.750;2023-12-20T05:51:58;50.38;;;47.47;;
60292;SDS011;52402;52.670;6.750;2023-12-20T05:54:24;48.00;;;45.20;;
60292;SDS011;52402;52.670;6.750;2023-12-20T05:56:49;47.30;;;44.60;;
60292;SDS011;52402;52.670;6.750;2023-12-20T05:59:15;42.75;;;40.28;;
60292;SDS011;52402;52.670;6.750;2023-12-20T06:01:41;49.10;;;46.30;;
60292;SDS011;52402;52.670;6.750;2023-12-20T06:04:06;45.28;;;42.78;;
60292;SDS011;52402;52.670;6.750;2023-12-20T06:06:32;41.85;;;39.45;;
60292;SDS011;52402;52.670;6.750;2023-12-20T06:08:57;46.72;;;44.13;;
60292;SDS011;52402;52.670;6.750;2023-12-20T06:11:23;47.72;;;45.03;;
60292;SDS011;52402;52.670;6.750;2023-12-20T06:13:49;46.10;;;43.50;;
60292;SDS011;52402;52.670;6.750;2023-12-20T06:16:17;44.78;;;42.17;;
60292;SDS011;52402;52.670;6.750;2023-12-20T06:18:43;47.15;;;44.45;;
60292;SDS011;52402;52.670;6.750;2023-12-20T06:21:09;45.25;;;42.65;;
60292;SDS011;52402;52.670;6.750;2023-12-20T06:23:37;43.78;;;41.28;;
60292;SDS011;52402;52.670;6.750;2023-12-20T06:26:03;47.42;;;44.72;;
60292;SDS011;52402;52.670;6.750;2023-12-20T06:28:29;45.20;;;42.60;;
60292;SDS011;52402;52.670;6.750;2023-12-20T06:30:54;46.35;;;43.75;;
60292;SDS011;52402;52.670;6.750;2023-12-20T06:33:21;41.10;;;38.72;;
60292;SDS011;52402;52.670;6.750;2023-12-20T06:35:47;43.08;;;40.58;;
60292;SDS011;52402;52.670;6.750;2023-12-20T06:38:13;42.03;;;39.63;;
60292;SDS011;52402;52.670;6.750;2023-12-20T06:40:39;40.47;;;38.10;;
60292;SDS011;52402;52.670;6.750;2023-12-20T06:43:04;42.80;;;40.30;;
60292;SDS011;52402;52.670;6.750;2023-12-20T06:45:31;41.08;;;38.67;;
60292;SDS011;52402;52.670;6.750;2023-12-20T06:47:57;41.50;;;39.10;;
60292;SDS011;52402;52.670;6.750;2023-12-20T06:50:23;42.40;;;39.90;;
60292;SDS011;52402;52.670;6.750;2023-12-20T06:52:49;41.65;;;39.25;;
60292;SDS011;52402;52.670;6.750;2023-12-20T06:55:15;40.60;;;38.20;;
60292;SDS011;52402;52.670;6.750;2023-12-20T06:57:40;37.50;;;35.30;;
60292;SDS011;52402;52.670;6.750;2023-12-20T07:00:06;37.70;;;35.50;;
60292;SDS011;52402;52.670;6.750;2023-12-20T07:02:33;37.55;;;35.35;;
60292;SDS011;52402;52.670;6.750;2023-12-20T07:04:59;37.28;;;35.08;;
60292;SDS011;52402;52.670;6.750;2023-12-20T07:07:25;39.30;;;37.00;;
60292;SDS011;52402;52.670;6.750;2023-12-20T07:09:51;38.80;;;36.50;;
60292;SDS011;52402;52.670;6.750;2023-12-20T07:12:17;37.47;;;35.28;;
60292;SDS011;52402;52.670;6.750;2023-12-20T07:14:44;37.13;;;34.92;;
60292;SDS011;52402;52.670;6.750;2023-12-20T07:17:10;38.40;;;36.17;;
60292;SDS011;52402;52.670;6.750;2023-12-20T07:19:38;38.30;;;36.10;;
60292;SDS011;52402;52.670;6.750;2023-12-20T07:22:05;35.72;;;33.63;;
60292;SDS011;52402;52.670;6.750;2023-12-20T07:24:31;34.03;;;32.03;;
60292;SDS011;52402;52.670;6.750;2023-12-20T07:26:56;35.17;;;33.08;;
60292;SDS011;52402;52.670;6.750;2023-12-20T07:29:22;33.70;;;31.70;;
60292;SDS011;52402;52.670;6.750;2023-12-20T07:31:47;34.75;;;32.85;;
60292;SDS011;52402;52.670;6.750;2023-12-20T07:34:13;34.42;;;32.47;;
60292;SDS011;52402;52.670;6.750;2023-12-20T07:36:39;34.10;;;32.10;;
60292;SDS011;52402;52.670;6.750;2023-12-20T07:39:04;34.85;;;32.75;;
60292;SDS011;52402;52.670;6.750;2023-12-20T07:41:30;33.47;;;31.48;;
60292;SDS011;52402;52.670;6.750;2023-12-20T07:43:55;33.45;;;31.45;;
60292;SDS011;52402;52.670;6.750;2023-12-20T07:46:21;32.95;;;30.95;;
60292;SDS011;52402;52.670;6.750;2023-12-20T07:48:53;32.60;;;30.60;;
60292;SDS011;52402;52.670;6.750;2023-12-20T07:51:19;33.30;;;31.30;;
60292;SDS011;52402;52.670;6.750;2023-12-20T07:53:46;33.72;;;31.63;;
60292;SDS011;52402;52.670;6.750;2023-12-20T07:56:18;36.25;;;34.05;;
60292;SDS011;52402;52.670;6.750;2023-12-20T07:58:44;36.90;;;34.70;;
60292;SDS011;52402;52.670;6.750;2023-12-20T08:01:11;37.00;;;34.80;;
60292;SDS011;52402;52.670;6.750;2023-12-20T08:03:37;40.60;;;38.25;;
60292;SDS011;52402;52.670;6.750;2023-12-20T08:06:03;39.05;;;36.75;;
60292;SDS011;52402;52.670;6.750;2023-12-20T08:08:29;38.55;;;36.15;;
60292;SDS011;52402;52.670;6.750;2023-12-20T08:10:55;38.83;;;36.53;;
60292;SDS011;52402;52.670;6.750;2023-12-20T08:13:22;38.95;;;36.55;;
60292;SDS011;52402;52.670;6.750;2023-12-20T08:15:51;39.15;;;36.75;;
60292;SDS011;52402;52.670;6.750;2023-12-20T08:18:16;39.97;;;37.58;;
60292;SDS011;52402;52.670;6.750;2023-12-20T08:20:42;36.75;;;34.47;;
60292;SDS011;52402;52.670;6.750;2023-12-20T08:23:08;33.70;;;31.50;;
60292;SDS011;52402;52.670;6.750;2023-12-20T08:25:33;32.20;;;30.10;;
60292;SDS011;52402;52.670;6.750;2023-12-20T08:28:02;33.80;;;31.70;;
60292;SDS011;52402;52.670;6.750;2023-12-20T08:30:29;32.28;;;30.17;;
60292;SDS011;52402;52.670;6.750;2023-12-20T08:32:56;32.28;;;30.17;;
60292;SDS011;52402;52.670;6.750;2023-12-20T08:35:21;32.90;;;30.80;;
60292;SDS011;52402;52.670;6.750;2023-12-20T08:37:47;33.13;;;31.02;;
60292;SDS011;52402;52.670;6.750;2023-12-20T08:40:12;34.05;;;31.85;;
60292;SDS011;52402;52.670;6.750;2023-12-20T08:42:38;32.72;;;30.63;;
60292;SDS011;52402;52.670;6.750;2023-12-20T08:45:04;31.75;;;29.75;;
60292;SDS011;52402;52.670;6.750;2023-12-20T08:47:30;34.10;;;31.92;;
60292;SDS011;52402;52.670;6.750;2023-12-20T08:49:55;32.08;;;30.00;;
60292;SDS011;52402;52.670;6.750;2023-12-20T08:52:23;33.95;;;31.75;;
60292;SDS011;52402;52.670;6.750;2023-12-20T08:54:49;33.25;;;31.15;;
60292;SDS011;52402;52.670;6.750;2023-12-20T08:57:20;32.63;;;30.52;;
60292;SDS011;52402;52.670;6.750;2023-12-20T08:59:46;33.45;;;31.30;;
60292;SDS011;52402;52.670;6.750;2023-12-20T09:02:12;32.45;;;30.35;;
60292;SDS011;52402;52.670;6.750;2023-12-20T09:04:39;31.13;;;29.08;;
60292;SDS011;52402;52.670;6.750;2023-12-20T09:07:05;30.40;;;28.40;;
60292;SDS011;52402;52.670;6.750;2023-12-20T09:09:30;28.63;;;26.63;;
60292;SDS011;52402;52.670;6.750;2023-12-20T09:11:57;29.35;;;27.35;;
60292;SDS011;52402;52.670;6.750;2023-12-20T09:14:23;28.67;;;26.75;;
60292;SDS011;52402;52.670;6.750;2023-12-20T09:16:48;29.15;;;27.15;;
60292;SDS011;52402;52.670;6.750;2023-12-20T09:19:16;29.15;;;27.17;;
60292;SDS011;52402;52.670;6.750;2023-12-20T09:21:42;28.83;;;26.90;;
60292;SDS011;52402;52.670;6.750;2023-12-20T09:24:08;28.90;;;26.90;;
60292;SDS011;52402;52.670;6.750;2023-12-20T09:26:34;29.35;;;27.35;;
60292;SDS011;52402;52.670;6.750;2023-12-20T09:28:59;29.40;;;27.40;;
60292;SDS011;52402;52.670;6.750;2023-12-20T09:31:25;29.05;;;27.08;;
60292;SDS011;52402;52.670;6.750;2023-12-20T09:33:51;28.90;;;26.90;;
60292;SDS011;52402;52.670;6.750;2023-12-20T09:36:19;29.63;;;27.63;;
60292;SDS011;52402;52.670;6.750;2023-12-20T09:38:44;27.80;;;25.90;;
60292;SDS011;52402;52.670;6.750;2023-12-20T09:41:11;28.38;;;26.38;;
60292;SDS011;52402;52.670;6.750;2023-12-20T09:43:37;29.15;;;27.15;;
60292;SDS011;52402;52.670;6.750;2023-12-20T09:46:05;27.77;;;25.83;;
60292;SDS011;52402;52.670;6.750;2023-12-20T09:48:32;26.17;;;24.27;;
60292;SDS011;52402;52.670;6.750;2023-12-20T09:50:58;28.20;;;26.20;;
60292;SDS011;52402;52.670;6.750;2023-12-20T09:53:24;26.98;;;25.08;;
60292;SDS011;52402;52.670;6.750;2023-12-20T09:55:55;27.38;;;25.48;;
60292;SDS011;52402;52.670;6.750;2023-12-20T09:58:25;25.40;;;23.60;;
60292;SDS011;52402;52.670;6.750;2023-12-20T10:00:50;27.27;;;25.38;;
60292;SDS011;52402;52.670;6.750;2023-12-20T10:03:17;27.33;;;25.42;;
60292;SDS011;52402;52.670;6.750;2023-12-20T10:05:50;27.33;;;25.42;;
60292;SDS011;52402;52.670;6.750;2023-12-20T10:08:19;28.33;;;26.33;;
60292;SDS011;52402;52.670;6.750;2023-12-20T10:10:47;27.25;;;25.35;;
60292;SDS011;52402;52.670;6.750;2023-12-20T10:13:12;28.73;;;26.73;;
60292;SDS011;52402;52.670;6.750;2023-12-20T10:15:38;28.25;;;26.25;;
60292;SDS011;52402;52.670;6.750;2023-12-20T10:18:05;29.70;;;27.70;;
60292;SDS011;52402;52.670;6.750;2023-12-20T10:20:32;31.25;;;29.15;;
60292;SDS011;52402;52.670;6.750;2023-12-20T10:22:58;33.08;;;30.88;;
60292;SDS011;52402;52.670;6.750;2023-12-20T10:25:25;32.67;;;30.48;;
60292;SDS011;52402;52.670;6.750;2023-12-20T10:30:35;30.83;;;28.73;;
60292;SDS011;52402;52.670;6.750;2023-12-20T10:33:01;32.40;;;30.23;;
60292;SDS011;52402;52.670;6.750;2023-12-20T10:35:26;33.15;;;30.95;;
60292;SDS011;52402;52.670;6.750;2023-12-20T10:37:54;32.50;;;30.30;;
60292;SDS011;52402;52.670;6.750;2023-12-20T10:40:25;33.10;;;30.90;;
60292;SDS011;52402;52.670;6.750;2023-12-20T10:42:52;31.40;;;29.30;;
60292;SDS011;52402;52.670;6.750;2023-12-20T10:45:19;32.33;;;30.13;;
60292;SDS011;52402;52.670;6.750;2023-12-20T10:47:46;30.45;;;28.35;;
60292;SDS011;52402;52.670;6.750;2023-12-20T10:50:14;29.35;;;27.35;;
60292;SDS011;52402;52.670;6.750;2023-12-20T10:52:40;31.67;;;29.50;;
60292;SDS011;52402;52.670;6.750;2023-12-20T10:55:07;31.42;;;29.33;;
60292;SDS011;52402;52.670;6.750;2023-12-20T10:57:33;31.88;;;29.67;;
60292;SDS011;52402;52.670;6.750;2023-12-20T11:00:01;31.63;;;29.42;;
60292;SDS011;52402;52.670;6.750;2023-12-20T11:02:33;31.58;;;29.48;;
60292;SDS011;52402;52.670;6.750;2023-12-20T11:07:44;31.60;;;29.50;;
60292;SDS011;52402;52.670;6.750;2023-12-20T11:10:28;29.08;;;27.08;;
60292;SDS011;52402;52.670;6.750;2023-12-20T11:13:22;29.25;;;27.25;;
60292;SDS011;52402;52.670;6.750;2023-12-20T11:15:53;30.27;;;28.25;;
60292;SDS011;52402;52.670;6.750;2023-12-20T11:18:19;29.20;;;27.20;;
60292;SDS011;52402;52.670;6.750;2023-12-20T11:20:45;26.95;;;25.05;;
60292;SDS011;52402;52.670;6.750;2023-12-20T11:23:10;30.40;;;28.33;;
60292;SDS011;52402;52.670;6.750;2023-12-20T11:25:48;32.20;;;30.10;;
60292;SDS011;52402;52.670;6.750;2023-12-20T11:28:22;30.08;;;28.08;;
60292;SDS011;52402;52.670;6.750;2023-12-20T11:33:21;28.57;;;26.67;;
60292;SDS011;52402;52.670;6.750;2023-12-20T11:35:48;27.15;;;25.27;;
60292;SDS011;52402;52.670;6.750;2023-12-20T11:38:14;27.40;;;25.50;;
60292;SDS011;52402;52.670;6.750;2023-12-20T11:40:41;26.05;;;24.25;;
60292;SDS011;52402;52.670;6.750;2023-12-20T11:43:07;25.90;;;24.10;;
60292;SDS011;52402;52.670;6.750;2023-12-20T11:45:33;24.92;;;23.23;;
60292;SDS011;52402;52.670;6.750;2023-12-20T11:48:00;25.80;;;24.00;;
60292;SDS011;52402;52.670;6.750;2023-12-20T11:50:29;27.08;;;25.17;;
60292;SDS011;52402;52.670;6.750;2023-12-20T11:52:55;26.92;;;25.08;;
60292;SDS011;52402;52.670;6.750;2023-12-20T11:55:22;26.45;;;24.65;;
60292;SDS011;52402;52.670;6.750;2023-12-20T11:57:49;25.55;;;23.75;;
60292;SDS011;52402;52.670;6.750;2023-12-20T12:00:16;26.60;;;24.80;;
60292;SDS011;52402;52.670;6.750;2023-12-20T12:02:42;27.45;;;25.55;;
60292;SDS011;52402;52.670;6.750;2023-12-20T12:05:08;27.90;;;26.00;;
60292;SDS011;52402;52.670;6.750;2023-12-20T12:07:34;27.38;;;25.48;;
60292;SDS011;52402;52.670;6.750;2023-12-20T12:10:00;26.52;;;24.73;;
60292;SDS011;52402;52.670;6.750;2023-12-20T12:12:26;27.27;;;25.38;;
60292;SDS011;52402;52.670;6.750;2023-12-20T12:14:53;27.10;;;25.20;;
60292;SDS011;52402;52.670;6.750;2023-12-20T12:17:21;26.45;;;24.65;;
60292;SDS011;52402;52.670;6.750;2023-12-20T12:19:47;25.50;;;23.70;;
60292;SDS011;52402;52.670;6.750;2023-12-20T12:22:13;25.63;;;23.83;;
60292;SDS011;52402;52.670;6.750;2023-12-20T12:24:40;26.20;;;24.40;;
60292;SDS011;52402;52.670;6.750;2023-12-20T12:27:07;24.52;;;22.73;;
60292;SDS011;52402;52.670;6.750;2023-12-20T12:29:40;24.17;;;22.38;;
60292;SDS011;52402;52.670;6.750;2023-12-20T12:32:06;24.55;;;22.75;;
60292;SDS011;52402;52.670;6.750;2023-12-20T12:34:33;24.67;;;22.88;;
60292;SDS011;52402;52.670;6.750;2023-12-20T12:37:00;25.42;;;23.63;;
60292;SDS011;52402;52.670;6.750;2023-12-20T12:39:26;26.20;;;24.30;;
60292;SDS011;52402;52.670;6.750;2023-12-20T12:41:52;24.23;;;22.42;;
60292;SDS011;52402;52.670;6.750;2023-12-20T12:44:18;25.05;;;23.25;;
60292;SDS011;52402;52.670;6.750;2023-12-20T12:46:45;25.20;;;23.40;;
60292;SDS011;52402;52.670;6.750;2023-12-20T12:49:11;25.42;;;23.63;;
60292;SDS011;52402;52.670;6.750;2023-12-20T12:51:37;25.52;;;23.73;;
60292;SDS011;52402;52.670;6.750;2023-12-20T12:54:02;25.05;;;23.25;;
60292;SDS011;52402;52.670;6.750;2023-12-20T12:56:28;25.63;;;23.83;;
60292;SDS011;52402;52.670;6.750;2023-12-20T12:58:54;25.33;;;23.50;;
60292;SDS011;52402;52.670;6.750;2023-12-20T13:01:20;25.42;;;23.63;;
60292;SDS011;52402;52.670;6.750;2023-12-20T13:03:46;24.50;;;22.70;;
60292;SDS011;52402;52.670;6.750;2023-12-20T13:06:12;25.58;;;23.77;;
60292;SDS011;52402;52.670;6.750;2023-12-20T13:08:38;26.73;;;24.83;;
60292;SDS011;52402;52.670;6.750;2023-12-20T13:11:04;25.85;;;24.05;;
60292;SDS011;52402;52.670;6.750;2023-12-20T13:13:30;26.33;;;24.52;;
60292;SDS011;52402;52.670;6.750;2023-12-20T13:15:56;28.60;;;26.60;;
60292;SDS011;52402;52.670;6.750;2023-12-20T13:18:25;28.10;;;26.20;;
60292;SDS011;52402;52.670;6.750;2023-12-20T13:20:50;30.75;;;28.65;;
60292;SDS011;52402;52.670;6.750;2023-12-20T13:23:16;30.65;;;28.58;;
60292;SDS011;52402;52.670;6.750;2023-12-20T13:25:43;31.27;;;29.17;;
60292;SDS011;52402;52.670;6.750;2023-12-20T13:28:10;30.42;;;28.40;;
60292;SDS011;52402;52.670;6.750;2023-12-20T13:30:36;31.73;;;29.63;;
60292;SDS011;52402;52.670;6.750;2023-12-20T13:33:02;32.42;;;30.33;;
60292;SDS011;52402;52.670;6.750;2023-12-20T13:35:27;32.63;;;30.42;;
60292;SDS011;52402;52.670;6.750;2023-12-20T13:37:53;34.63;;;32.33;;
60292;SDS011;52402;52.670;6.750;2023-12-20T13:40:18;35.55;;;33.25;;
60292;SDS011;52402;52.670;6.750;2023-12-20T13:42:44;33.95;;;31.75;;
60292;SDS011;52402;52.670;6.750;2023-12-20T13:45:10;34.13;;;31.83;;
60292;SDS011;52402;52.670;6.750;2023-12-20T13:47:36;34.63;;;32.33;;
60292;SDS011;52402;52.670;6.750;2023-12-20T13:50:02;36.83;;;34.42;;
60292;SDS011;52402;52.670;6.750;2023-12-20T13:52:29;37.25;;;34.85;;
60292;SDS011;52402;52.670;6.750;2023-12-20T13:54:55;37.92;;;35.42;;
60292;SDS011;52402;52.670;6.750;2023-12-20T13:57:20;38.20;;;35.70;;
60292;SDS011;52402;52.670;6.750;2023-12-20T13:59:46;36.60;;;34.20;;
60292;SDS011;52402;52.670;6.750;2023-12-20T14:02:11;40.25;;;37.75;;
60292;SDS011;52402;52.670;6.750;2023-12-20T14:04:37;42.28;;;39.58;;
60292;SDS011;52402;52.670;6.750;2023-12-20T14:07:04;41.28;;;38.67;;
60292;SDS011;52402;52.670;6.750;2023-12-20T14:09:30;41.42;;;38.72;;
60292;SDS011;52402;52.670;6.750;2023-12-20T14:11:55;37.60;;;35.10;;
60292;SDS011;52402;52.670;6.750;2023-12-20T14:14:21;40.20;;;37.53;;
60292;SDS011;52402;52.670;6.750;2023-12-20T14:16:46;41.42;;;38.72;;
60292;SDS011;52402;52.670;6.750;2023-12-20T14:19:12;41.03;;;38.33;;
60292;SDS011;52402;52.670;6.750;2023-12-20T14:21:38;42.70;;;39.90;;
60292;SDS011;52402;52.670;6.750;2023-12-20T14:24:03;42.55;;;39.75;;